<?xml version="1.0" encoding="UTF-8" standalone="no" ?>
<gpx xmlns="http://www.topografix.com/GPX/1/1" xmlns:xsi="http://www.w3.org/2001/XMLSchema-instance" xsi:schemaLocation="http://www.topografix.com/GPX/1/1 http://www.topografix.com/GPX/1/1/gpx.xsd" version="1.1" creator="VisuGPX - https://www.visugpx.com">
  <metadata>
    <name>65 - PEDESTRE - Cauteret tour des lacs</name>
    <desc><![CDATA[Avec Yves et Nathalie]]></desc>
  </metadata>
  <wpt lat="42.84236" lon="-0.17282">
    <ele>1802.34375</ele>
    <name><![CDATA[001]]></name>
    <desc><![CDATA[25-SEP-14 10:54:03]]></desc>
    <cmt><![CDATA[25-SEP-14 10:54:03]]></cmt>
  </wpt>
  <trk>
    <name><![CDATA[ACTIVE LOG 004]]></name>
    <trkseg>
      <trkpt lat="42.82851" lon="-0.1787">
        <ele>1717.0520019531</ele>
        <time>2015-07-26T15:17:51Z</time>
      </trkpt>
      <trkpt lat="42.82857" lon="-0.17867">
        <ele>1714.16796875</ele>
        <time>2015-07-26T15:18:00Z</time>
      </trkpt>
      <trkpt lat="42.82858" lon="-0.17866">
        <ele>1717.5324707031</ele>
        <time>2015-07-26T15:18:03Z</time>
      </trkpt>
      <trkpt lat="42.82859" lon="-0.17863">
        <ele>1720.4165039062</ele>
        <time>2015-07-26T15:18:06Z</time>
      </trkpt>
      <trkpt lat="42.8286" lon="-0.1786">
        <ele>1724.7426757812</ele>
        <time>2015-07-26T15:18:10Z</time>
      </trkpt>
      <trkpt lat="42.82858" lon="-0.17858">
        <ele>1728.1071777344</ele>
        <time>2015-07-26T15:18:14Z</time>
      </trkpt>
      <trkpt lat="42.82854" lon="-0.17855">
        <ele>1731.4716796875</ele>
        <time>2015-07-26T15:18:19Z</time>
      </trkpt>
      <trkpt lat="42.82849" lon="-0.17855">
        <ele>1734.8364257812</ele>
        <time>2015-07-26T15:18:24Z</time>
      </trkpt>
      <trkpt lat="42.82848" lon="-0.17854">
        <ele>1734.8364257812</ele>
        <time>2015-07-26T15:18:25Z</time>
      </trkpt>
      <trkpt lat="42.82844" lon="-0.17856">
        <ele>1738.2009277344</ele>
        <time>2015-07-26T15:18:31Z</time>
      </trkpt>
      <trkpt lat="42.82844" lon="-0.17857">
        <ele>1738.681640625</ele>
        <time>2015-07-26T15:18:32Z</time>
      </trkpt>
      <trkpt lat="42.8283" lon="-0.17858">
        <ele>1741.0849609375</ele>
        <time>2015-07-26T15:18:47Z</time>
      </trkpt>
      <trkpt lat="42.8282" lon="-0.17857">
        <ele>1742.5270996094</ele>
        <time>2015-07-26T15:18:59Z</time>
      </trkpt>
      <trkpt lat="42.82817" lon="-0.17859">
        <ele>1742.0463867188</ele>
        <time>2015-07-26T15:19:02Z</time>
      </trkpt>
      <trkpt lat="42.82804" lon="-0.17859">
        <ele>1741.0849609375</ele>
        <time>2015-07-26T15:19:16Z</time>
      </trkpt>
      <trkpt lat="42.82803" lon="-0.17849">
        <ele>1739.6428222656</ele>
        <time>2015-07-26T15:19:29Z</time>
      </trkpt>
      <trkpt lat="42.82809" lon="-0.17844">
        <ele>1736.7587890625</ele>
        <time>2015-07-26T15:19:38Z</time>
      </trkpt>
      <trkpt lat="42.82815" lon="-0.1784">
        <ele>1735.3168945312</ele>
        <time>2015-07-26T15:19:47Z</time>
      </trkpt>
      <trkpt lat="42.82821" lon="-0.17835">
        <ele>1734.8364257812</ele>
        <time>2015-07-26T15:19:52Z</time>
      </trkpt>
      <trkpt lat="42.82838" lon="-0.17807">
        <ele>1732.4331054688</ele>
        <time>2015-07-26T15:20:09Z</time>
      </trkpt>
      <trkpt lat="42.82856" lon="-0.17787">
        <ele>1730.9912109375</ele>
        <time>2015-07-26T15:20:26Z</time>
      </trkpt>
      <trkpt lat="42.82877" lon="-0.17766">
        <ele>1731.4716796875</ele>
        <time>2015-07-26T15:20:43Z</time>
      </trkpt>
      <trkpt lat="42.82883" lon="-0.17753">
        <ele>1731.9523925781</ele>
        <time>2015-07-26T15:21:01Z</time>
      </trkpt>
      <trkpt lat="42.82889" lon="-0.17741">
        <ele>1731.4716796875</ele>
        <time>2015-07-26T15:21:12Z</time>
      </trkpt>
      <trkpt lat="42.82892" lon="-0.17735">
        <ele>1731.9523925781</ele>
        <time>2015-07-26T15:21:18Z</time>
      </trkpt>
      <trkpt lat="42.82893" lon="-0.1773">
        <ele>1730.5104980469</ele>
        <time>2015-07-26T15:21:23Z</time>
      </trkpt>
      <trkpt lat="42.82894" lon="-0.17726">
        <ele>1730.9912109375</ele>
        <time>2015-07-26T15:21:26Z</time>
      </trkpt>
      <trkpt lat="42.82917" lon="-0.17695">
        <ele>1731.4716796875</ele>
        <time>2015-07-26T15:21:45Z</time>
      </trkpt>
      <trkpt lat="42.8293" lon="-0.17672">
        <ele>1732.4331054688</ele>
        <time>2015-07-26T15:22:01Z</time>
      </trkpt>
      <trkpt lat="42.82944" lon="-0.17648">
        <ele>1732.4331054688</ele>
        <time>2015-07-26T15:22:19Z</time>
      </trkpt>
      <trkpt lat="42.82967" lon="-0.17618">
        <ele>1730.9912109375</ele>
        <time>2015-07-26T15:22:39Z</time>
      </trkpt>
      <trkpt lat="42.82971" lon="-0.17612">
        <ele>1732.4331054688</ele>
        <time>2015-07-26T15:22:49Z</time>
      </trkpt>
      <trkpt lat="42.82972" lon="-0.17608">
        <ele>1730.9912109375</ele>
        <time>2015-07-26T15:23:00Z</time>
      </trkpt>
      <trkpt lat="42.82983" lon="-0.17599">
        <ele>1731.4716796875</ele>
        <time>2015-07-26T15:23:15Z</time>
      </trkpt>
      <trkpt lat="42.82985" lon="-0.17598">
        <ele>1731.4716796875</ele>
        <time>2015-07-26T15:23:17Z</time>
      </trkpt>
      <trkpt lat="42.82993" lon="-0.17595">
        <ele>1730.9912109375</ele>
        <time>2015-07-26T15:23:24Z</time>
      </trkpt>
      <trkpt lat="42.83003" lon="-0.17587">
        <ele>1731.4716796875</ele>
        <time>2015-07-26T15:23:33Z</time>
      </trkpt>
      <trkpt lat="42.83026" lon="-0.17563">
        <ele>1731.4716796875</ele>
        <time>2015-07-26T15:23:51Z</time>
      </trkpt>
      <trkpt lat="42.8304" lon="-0.17547">
        <ele>1730.0297851562</ele>
        <time>2015-07-26T15:24:07Z</time>
      </trkpt>
      <trkpt lat="42.83052" lon="-0.17534">
        <ele>1730.0297851562</ele>
        <time>2015-07-26T15:24:22Z</time>
      </trkpt>
      <trkpt lat="42.83063" lon="-0.17523">
        <ele>1729.5490722656</ele>
        <time>2015-07-26T15:24:33Z</time>
      </trkpt>
      <trkpt lat="42.83075" lon="-0.17514">
        <ele>1729.5490722656</ele>
        <time>2015-07-26T15:24:46Z</time>
      </trkpt>
      <trkpt lat="42.83084" lon="-0.175">
        <ele>1730.0297851562</ele>
        <time>2015-07-26T15:25:00Z</time>
      </trkpt>
      <trkpt lat="42.83091" lon="-0.17486">
        <ele>1729.5490722656</ele>
        <time>2015-07-26T15:25:13Z</time>
      </trkpt>
      <trkpt lat="42.83097" lon="-0.17472">
        <ele>1729.068359375</ele>
        <time>2015-07-26T15:25:22Z</time>
      </trkpt>
      <trkpt lat="42.83108" lon="-0.17451">
        <ele>1729.068359375</ele>
        <time>2015-07-26T15:25:38Z</time>
      </trkpt>
      <trkpt lat="42.83118" lon="-0.17433">
        <ele>1728.587890625</ele>
        <time>2015-07-26T15:25:53Z</time>
      </trkpt>
      <trkpt lat="42.83128" lon="-0.17417">
        <ele>1727.6264648438</ele>
        <time>2015-07-26T15:26:07Z</time>
      </trkpt>
      <trkpt lat="42.83138" lon="-0.17407">
        <ele>1727.1459960938</ele>
        <time>2015-07-26T15:26:16Z</time>
      </trkpt>
      <trkpt lat="42.8314" lon="-0.17401">
        <ele>1727.1459960938</ele>
        <time>2015-07-26T15:26:21Z</time>
      </trkpt>
      <trkpt lat="42.8314" lon="-0.17376">
        <ele>1727.6264648438</ele>
        <time>2015-07-26T15:26:41Z</time>
      </trkpt>
      <trkpt lat="42.83141" lon="-0.17374">
        <ele>1727.6264648438</ele>
        <time>2015-07-26T15:26:43Z</time>
      </trkpt>
      <trkpt lat="42.83151" lon="-0.17354">
        <ele>1727.6264648438</ele>
        <time>2015-07-26T15:27:00Z</time>
      </trkpt>
      <trkpt lat="42.83156" lon="-0.17345">
        <ele>1726.6652832031</ele>
        <time>2015-07-26T15:27:11Z</time>
      </trkpt>
      <trkpt lat="42.83177" lon="-0.17332">
        <ele>1727.6264648438</ele>
        <time>2015-07-26T15:27:25Z</time>
      </trkpt>
      <trkpt lat="42.83185" lon="-0.17348">
        <ele>1727.1459960938</ele>
        <time>2015-07-26T15:27:37Z</time>
      </trkpt>
      <trkpt lat="42.83192" lon="-0.17353">
        <ele>1726.6652832031</ele>
        <time>2015-07-26T15:27:50Z</time>
      </trkpt>
      <trkpt lat="42.83201" lon="-0.17341">
        <ele>1726.6652832031</ele>
        <time>2015-07-26T15:28:01Z</time>
      </trkpt>
      <trkpt lat="42.83215" lon="-0.17328">
        <ele>1726.6652832031</ele>
        <time>2015-07-26T15:28:13Z</time>
      </trkpt>
      <trkpt lat="42.83216" lon="-0.17327">
        <ele>1727.1459960938</ele>
        <time>2015-07-26T15:28:14Z</time>
      </trkpt>
      <trkpt lat="42.83235" lon="-0.17328">
        <ele>1726.1845703125</ele>
        <time>2015-07-26T15:28:32Z</time>
      </trkpt>
      <trkpt lat="42.83251" lon="-0.17325">
        <ele>1726.6652832031</ele>
        <time>2015-07-26T15:28:45Z</time>
      </trkpt>
      <trkpt lat="42.83263" lon="-0.17314">
        <ele>1727.1459960938</ele>
        <time>2015-07-26T15:28:57Z</time>
      </trkpt>
      <trkpt lat="42.83275" lon="-0.17308">
        <ele>1728.1071777344</ele>
        <time>2015-07-26T15:29:13Z</time>
      </trkpt>
      <trkpt lat="42.83284" lon="-0.17307">
        <ele>1729.068359375</ele>
        <time>2015-07-26T15:29:26Z</time>
      </trkpt>
      <trkpt lat="42.83289" lon="-0.17304">
        <ele>1730.0297851562</ele>
        <time>2015-07-26T15:29:32Z</time>
      </trkpt>
      <trkpt lat="42.83301" lon="-0.17296">
        <ele>1731.4716796875</ele>
        <time>2015-07-26T15:29:45Z</time>
      </trkpt>
      <trkpt lat="42.83312" lon="-0.1729">
        <ele>1734.8364257812</ele>
        <time>2015-07-26T15:29:59Z</time>
      </trkpt>
      <trkpt lat="42.8332" lon="-0.17299">
        <ele>1737.2395019531</ele>
        <time>2015-07-26T15:30:13Z</time>
      </trkpt>
      <trkpt lat="42.83326" lon="-0.17299">
        <ele>1737.7202148438</ele>
        <time>2015-07-26T15:30:24Z</time>
      </trkpt>
      <trkpt lat="42.83341" lon="-0.17303">
        <ele>1736.7587890625</ele>
        <time>2015-07-26T15:30:42Z</time>
      </trkpt>
      <trkpt lat="42.83342" lon="-0.17304">
        <ele>1736.7587890625</ele>
        <time>2015-07-26T15:30:44Z</time>
      </trkpt>
      <trkpt lat="42.83355" lon="-0.17306">
        <ele>1735.7976074219</ele>
        <time>2015-07-26T15:30:59Z</time>
      </trkpt>
      <trkpt lat="42.83363" lon="-0.17305">
        <ele>1734.8364257812</ele>
        <time>2015-07-26T15:31:11Z</time>
      </trkpt>
      <trkpt lat="42.83366" lon="-0.17295">
        <ele>1735.3168945312</ele>
        <time>2015-07-26T15:31:43Z</time>
      </trkpt>
      <trkpt lat="42.83382" lon="-0.17288">
        <ele>1734.8364257812</ele>
        <time>2015-07-26T15:31:59Z</time>
      </trkpt>
      <trkpt lat="42.83396" lon="-0.17286">
        <ele>1734.8364257812</ele>
        <time>2015-07-26T15:32:14Z</time>
      </trkpt>
      <trkpt lat="42.8341" lon="-0.1728">
        <ele>1734.8364257812</ele>
        <time>2015-07-26T15:32:29Z</time>
      </trkpt>
      <trkpt lat="42.83425" lon="-0.17268">
        <ele>1734.8364257812</ele>
        <time>2015-07-26T15:32:43Z</time>
      </trkpt>
      <trkpt lat="42.83436" lon="-0.17259">
        <ele>1734.8364257812</ele>
        <time>2015-07-26T15:32:56Z</time>
      </trkpt>
      <trkpt lat="42.83449" lon="-0.17251">
        <ele>1736.2783203125</ele>
        <time>2015-07-26T15:33:09Z</time>
      </trkpt>
      <trkpt lat="42.83459" lon="-0.1724">
        <ele>1735.7976074219</ele>
        <time>2015-07-26T15:33:22Z</time>
      </trkpt>
      <trkpt lat="42.83476" lon="-0.1723">
        <ele>1734.8364257812</ele>
        <time>2015-07-26T15:33:38Z</time>
      </trkpt>
      <trkpt lat="42.83488" lon="-0.17227">
        <ele>1734.8364257812</ele>
        <time>2015-07-26T15:33:49Z</time>
      </trkpt>
      <trkpt lat="42.83507" lon="-0.17219">
        <ele>1732.9135742188</ele>
        <time>2015-07-26T15:34:05Z</time>
      </trkpt>
      <trkpt lat="42.83517" lon="-0.17214">
        <ele>1732.4331054688</ele>
        <time>2015-07-26T15:34:16Z</time>
      </trkpt>
      <trkpt lat="42.83536" lon="-0.1721">
        <ele>1731.4716796875</ele>
        <time>2015-07-26T15:34:32Z</time>
      </trkpt>
      <trkpt lat="42.83554" lon="-0.17208">
        <ele>1729.5490722656</ele>
        <time>2015-07-26T15:34:48Z</time>
      </trkpt>
      <trkpt lat="42.83562" lon="-0.17201">
        <ele>1727.6264648438</ele>
        <time>2015-07-26T15:34:58Z</time>
      </trkpt>
      <trkpt lat="42.83572" lon="-0.17189">
        <ele>1727.1459960938</ele>
        <time>2015-07-26T15:35:09Z</time>
      </trkpt>
      <trkpt lat="42.83582" lon="-0.17162">
        <ele>1725.7038574219</ele>
        <time>2015-07-26T15:35:26Z</time>
      </trkpt>
      <trkpt lat="42.83583" lon="-0.17132">
        <ele>1725.7038574219</ele>
        <time>2015-07-26T15:35:43Z</time>
      </trkpt>
      <trkpt lat="42.83583" lon="-0.1713">
        <ele>1725.2231445312</ele>
        <time>2015-07-26T15:35:45Z</time>
      </trkpt>
      <trkpt lat="42.83583" lon="-0.17108">
        <ele>1724.7426757812</ele>
        <time>2015-07-26T15:36:00Z</time>
      </trkpt>
      <trkpt lat="42.83581" lon="-0.17081">
        <ele>1726.1845703125</ele>
        <time>2015-07-26T15:36:18Z</time>
      </trkpt>
      <trkpt lat="42.83587" lon="-0.17063">
        <ele>1727.1459960938</ele>
        <time>2015-07-26T15:36:33Z</time>
      </trkpt>
      <trkpt lat="42.83597" lon="-0.17048">
        <ele>1728.587890625</ele>
        <time>2015-07-26T15:36:49Z</time>
      </trkpt>
      <trkpt lat="42.83606" lon="-0.17036">
        <ele>1729.5490722656</ele>
        <time>2015-07-26T15:37:00Z</time>
      </trkpt>
      <trkpt lat="42.83616" lon="-0.17025">
        <ele>1729.5490722656</ele>
        <time>2015-07-26T15:37:10Z</time>
      </trkpt>
      <trkpt lat="42.83618" lon="-0.17022">
        <ele>1730.0297851562</ele>
        <time>2015-07-26T15:37:13Z</time>
      </trkpt>
      <trkpt lat="42.83635" lon="-0.17004">
        <ele>1729.5490722656</ele>
        <time>2015-07-26T15:37:32Z</time>
      </trkpt>
      <trkpt lat="42.83642" lon="-0.16993">
        <ele>1728.1071777344</ele>
        <time>2015-07-26T15:37:42Z</time>
      </trkpt>
      <trkpt lat="42.83648" lon="-0.16974">
        <ele>1725.2231445312</ele>
        <time>2015-07-26T15:37:59Z</time>
      </trkpt>
      <trkpt lat="42.83651" lon="-0.16956">
        <ele>1723.3005371094</ele>
        <time>2015-07-26T15:38:17Z</time>
      </trkpt>
      <trkpt lat="42.83657" lon="-0.16933">
        <ele>1721.8583984375</ele>
        <time>2015-07-26T15:38:33Z</time>
      </trkpt>
      <trkpt lat="42.83666" lon="-0.16913">
        <ele>1721.8583984375</ele>
        <time>2015-07-26T15:38:48Z</time>
      </trkpt>
      <trkpt lat="42.83676" lon="-0.16891">
        <ele>1723.3005371094</ele>
        <time>2015-07-26T15:39:04Z</time>
      </trkpt>
      <trkpt lat="42.83687" lon="-0.16872">
        <ele>1723.7810058594</ele>
        <time>2015-07-26T15:39:19Z</time>
      </trkpt>
      <trkpt lat="42.83695" lon="-0.16856">
        <ele>1724.7426757812</ele>
        <time>2015-07-26T15:39:33Z</time>
      </trkpt>
      <trkpt lat="42.83705" lon="-0.16841">
        <ele>1724.2619628906</ele>
        <time>2015-07-26T15:39:48Z</time>
      </trkpt>
      <trkpt lat="42.83714" lon="-0.16814">
        <ele>1723.3005371094</ele>
        <time>2015-07-26T15:40:07Z</time>
      </trkpt>
      <trkpt lat="42.83713" lon="-0.16813">
        <ele>1722.8198242188</ele>
        <time>2015-07-26T15:40:08Z</time>
      </trkpt>
      <trkpt lat="42.83703" lon="-0.16788">
        <ele>1719.4553222656</ele>
        <time>2015-07-26T15:40:29Z</time>
      </trkpt>
      <trkpt lat="42.83701" lon="-0.16777">
        <ele>1718.4938964844</ele>
        <time>2015-07-26T15:40:38Z</time>
      </trkpt>
      <trkpt lat="42.83704" lon="-0.16756">
        <ele>1715.1293945312</ele>
        <time>2015-07-26T15:40:53Z</time>
      </trkpt>
      <trkpt lat="42.83705" lon="-0.16751">
        <ele>1714.16796875</ele>
        <time>2015-07-26T15:40:57Z</time>
      </trkpt>
      <trkpt lat="42.83716" lon="-0.16737">
        <ele>1713.2067871094</ele>
        <time>2015-07-26T15:41:11Z</time>
      </trkpt>
      <trkpt lat="42.83725" lon="-0.16732">
        <ele>1712.7260742188</ele>
        <time>2015-07-26T15:41:20Z</time>
      </trkpt>
      <trkpt lat="42.83729" lon="-0.16728">
        <ele>1712.7260742188</ele>
        <time>2015-07-26T15:41:24Z</time>
      </trkpt>
      <trkpt lat="42.83729" lon="-0.16705">
        <ele>1709.8420410156</ele>
        <time>2015-07-26T15:41:41Z</time>
      </trkpt>
      <trkpt lat="42.83725" lon="-0.16682">
        <ele>1706.4772949219</ele>
        <time>2015-07-26T15:41:58Z</time>
      </trkpt>
      <trkpt lat="42.83718" lon="-0.16655">
        <ele>1705.5161132812</ele>
        <time>2015-07-26T15:42:17Z</time>
      </trkpt>
      <trkpt lat="42.83722" lon="-0.16649">
        <ele>1705.0354003906</ele>
        <time>2015-07-26T15:42:24Z</time>
      </trkpt>
      <trkpt lat="42.83735" lon="-0.16656">
        <ele>1703.5935058594</ele>
        <time>2015-07-26T15:42:36Z</time>
      </trkpt>
      <trkpt lat="42.8374" lon="-0.16682">
        <ele>1701.6708984375</ele>
        <time>2015-07-26T15:42:49Z</time>
      </trkpt>
      <trkpt lat="42.83753" lon="-0.16693">
        <ele>1701.6708984375</ele>
        <time>2015-07-26T15:43:03Z</time>
      </trkpt>
      <trkpt lat="42.83771" lon="-0.16694">
        <ele>1698.7868652344</ele>
        <time>2015-07-26T15:43:20Z</time>
      </trkpt>
      <trkpt lat="42.83776" lon="-0.16691">
        <ele>1699.7482910156</ele>
        <time>2015-07-26T15:43:25Z</time>
      </trkpt>
      <trkpt lat="42.83786" lon="-0.16676">
        <ele>1697.8256835938</ele>
        <time>2015-07-26T15:43:37Z</time>
      </trkpt>
      <trkpt lat="42.83794" lon="-0.16647">
        <ele>1696.3837890625</ele>
        <time>2015-07-26T15:43:54Z</time>
      </trkpt>
      <trkpt lat="42.83801" lon="-0.16617">
        <ele>1693.4997558594</ele>
        <time>2015-07-26T15:44:14Z</time>
      </trkpt>
      <trkpt lat="42.83802" lon="-0.16612">
        <ele>1693.0190429688</ele>
        <time>2015-07-26T15:44:18Z</time>
      </trkpt>
      <trkpt lat="42.8381" lon="-0.16601">
        <ele>1692.0578613281</ele>
        <time>2015-07-26T15:44:29Z</time>
      </trkpt>
      <trkpt lat="42.83821" lon="-0.16591">
        <ele>1691.0961914062</ele>
        <time>2015-07-26T15:44:40Z</time>
      </trkpt>
      <trkpt lat="42.83827" lon="-0.16587">
        <ele>1689.654296875</ele>
        <time>2015-07-26T15:44:50Z</time>
      </trkpt>
      <trkpt lat="42.83841" lon="-0.16583">
        <ele>1687.7316894531</ele>
        <time>2015-07-26T15:45:02Z</time>
      </trkpt>
      <trkpt lat="42.83847" lon="-0.16582">
        <ele>1686.7702636719</ele>
        <time>2015-07-26T15:45:10Z</time>
      </trkpt>
      <trkpt lat="42.83865" lon="-0.16582">
        <ele>1683.4057617188</ele>
        <time>2015-07-26T15:45:28Z</time>
      </trkpt>
      <trkpt lat="42.83887" lon="-0.16576">
        <ele>1681.9638671875</ele>
        <time>2015-07-26T15:45:44Z</time>
      </trkpt>
      <trkpt lat="42.83904" lon="-0.16574">
        <ele>1681.4831542969</ele>
        <time>2015-07-26T15:45:58Z</time>
      </trkpt>
      <trkpt lat="42.83913" lon="-0.16572">
        <ele>1680.0412597656</ele>
        <time>2015-07-26T15:46:07Z</time>
      </trkpt>
      <trkpt lat="42.83928" lon="-0.16571">
        <ele>1678.5993652344</ele>
        <time>2015-07-26T15:46:18Z</time>
      </trkpt>
      <trkpt lat="42.83933" lon="-0.16574">
        <ele>1677.1574707031</ele>
        <time>2015-07-26T15:46:26Z</time>
      </trkpt>
      <trkpt lat="42.83919" lon="-0.16586">
        <ele>1674.75390625</ele>
        <time>2015-07-26T15:46:43Z</time>
      </trkpt>
      <trkpt lat="42.83908" lon="-0.16598">
        <ele>1673.7924804688</ele>
        <time>2015-07-26T15:46:55Z</time>
      </trkpt>
      <trkpt lat="42.83898" lon="-0.16619">
        <ele>1671.3891601562</ele>
        <time>2015-07-26T15:47:12Z</time>
      </trkpt>
      <trkpt lat="42.83892" lon="-0.1663">
        <ele>1669.466796875</ele>
        <time>2015-07-26T15:47:20Z</time>
      </trkpt>
      <trkpt lat="42.8389" lon="-0.16638">
        <ele>1669.466796875</ele>
        <time>2015-07-26T15:47:25Z</time>
      </trkpt>
      <trkpt lat="42.83881" lon="-0.16664">
        <ele>1667.0634765625</ele>
        <time>2015-07-26T15:47:43Z</time>
      </trkpt>
      <trkpt lat="42.83879" lon="-0.16697">
        <ele>1664.66015625</ele>
        <time>2015-07-26T15:48:00Z</time>
      </trkpt>
      <trkpt lat="42.83881" lon="-0.167">
        <ele>1664.1794433594</ele>
        <time>2015-07-26T15:48:03Z</time>
      </trkpt>
      <trkpt lat="42.83883" lon="-0.16714">
        <ele>1663.2182617188</ele>
        <time>2015-07-26T15:48:10Z</time>
      </trkpt>
      <trkpt lat="42.83887" lon="-0.16729">
        <ele>1661.2956542969</ele>
        <time>2015-07-26T15:48:20Z</time>
      </trkpt>
      <trkpt lat="42.83891" lon="-0.16736">
        <ele>1659.3728027344</ele>
        <time>2015-07-26T15:48:26Z</time>
      </trkpt>
      <trkpt lat="42.83892" lon="-0.1674">
        <ele>1659.3728027344</ele>
        <time>2015-07-26T15:48:29Z</time>
      </trkpt>
      <trkpt lat="42.83897" lon="-0.16765">
        <ele>1656.9694824219</ele>
        <time>2015-07-26T15:48:46Z</time>
      </trkpt>
      <trkpt lat="42.83896" lon="-0.16785">
        <ele>1655.046875</ele>
        <time>2015-07-26T15:48:59Z</time>
      </trkpt>
      <trkpt lat="42.83891" lon="-0.16816">
        <ele>1653.1242675781</ele>
        <time>2015-07-26T15:49:16Z</time>
      </trkpt>
      <trkpt lat="42.83892" lon="-0.16823">
        <ele>1652.6435546875</ele>
        <time>2015-07-26T15:49:22Z</time>
      </trkpt>
      <trkpt lat="42.83895" lon="-0.16842">
        <ele>1649.759765625</ele>
        <time>2015-07-26T15:49:36Z</time>
      </trkpt>
      <trkpt lat="42.83903" lon="-0.16859">
        <ele>1648.7983398438</ele>
        <time>2015-07-26T15:49:49Z</time>
      </trkpt>
      <trkpt lat="42.83906" lon="-0.16862">
        <ele>1648.7983398438</ele>
        <time>2015-07-26T15:49:53Z</time>
      </trkpt>
      <trkpt lat="42.8391" lon="-0.16864">
        <ele>1648.3176269531</ele>
        <time>2015-07-26T15:50:13Z</time>
      </trkpt>
      <trkpt lat="42.83917" lon="-0.16866">
        <ele>1646.8757324219</ele>
        <time>2015-07-26T15:50:24Z</time>
      </trkpt>
      <trkpt lat="42.83925" lon="-0.16869">
        <ele>1645.9145507812</ele>
        <time>2015-07-26T15:50:32Z</time>
      </trkpt>
      <trkpt lat="42.83928" lon="-0.16875">
        <ele>1645.4338378906</ele>
        <time>2015-07-26T15:50:36Z</time>
      </trkpt>
      <trkpt lat="42.83947" lon="-0.16901">
        <ele>1643.9916992188</ele>
        <time>2015-07-26T15:50:59Z</time>
      </trkpt>
      <trkpt lat="42.83971" lon="-0.16901">
        <ele>1643.0302734375</ele>
        <time>2015-07-26T15:51:17Z</time>
      </trkpt>
      <trkpt lat="42.83994" lon="-0.16893">
        <ele>1642.5498046875</ele>
        <time>2015-07-26T15:51:35Z</time>
      </trkpt>
      <trkpt lat="42.84011" lon="-0.16883">
        <ele>1642.5498046875</ele>
        <time>2015-07-26T15:51:51Z</time>
      </trkpt>
      <trkpt lat="42.84031" lon="-0.16875">
        <ele>1641.1076660156</ele>
        <time>2015-07-26T15:52:09Z</time>
      </trkpt>
      <trkpt lat="42.84048" lon="-0.16864">
        <ele>1640.146484375</ele>
        <time>2015-07-26T15:52:24Z</time>
      </trkpt>
      <trkpt lat="42.84062" lon="-0.16837">
        <ele>1640.146484375</ele>
        <time>2015-07-26T15:52:43Z</time>
      </trkpt>
      <trkpt lat="42.84077" lon="-0.16813">
        <ele>1638.7045898438</ele>
        <time>2015-07-26T15:52:59Z</time>
      </trkpt>
      <trkpt lat="42.84091" lon="-0.16785">
        <ele>1638.7045898438</ele>
        <time>2015-07-26T15:53:17Z</time>
      </trkpt>
      <trkpt lat="42.84105" lon="-0.16754">
        <ele>1638.2238769531</ele>
        <time>2015-07-26T15:53:37Z</time>
      </trkpt>
      <trkpt lat="42.84124" lon="-0.16731">
        <ele>1637.2624511719</ele>
        <time>2015-07-26T15:53:56Z</time>
      </trkpt>
      <trkpt lat="42.84137" lon="-0.16715">
        <ele>1637.2624511719</ele>
        <time>2015-07-26T15:54:12Z</time>
      </trkpt>
      <trkpt lat="42.84155" lon="-0.16691">
        <ele>1636.3012695312</ele>
        <time>2015-07-26T15:54:32Z</time>
      </trkpt>
      <trkpt lat="42.84169" lon="-0.16675">
        <ele>1636.7817382812</ele>
        <time>2015-07-26T15:54:49Z</time>
      </trkpt>
      <trkpt lat="42.84173" lon="-0.16674">
        <ele>1636.3012695312</ele>
        <time>2015-07-26T15:54:52Z</time>
      </trkpt>
      <trkpt lat="42.84174" lon="-0.16666">
        <ele>1636.3012695312</ele>
        <time>2015-07-26T15:54:58Z</time>
      </trkpt>
      <trkpt lat="42.84177" lon="-0.16661">
        <ele>1635.8205566406</ele>
        <time>2015-07-26T15:55:02Z</time>
      </trkpt>
      <trkpt lat="42.84196" lon="-0.16634">
        <ele>1636.3012695312</ele>
        <time>2015-07-26T15:55:23Z</time>
      </trkpt>
      <trkpt lat="42.84211" lon="-0.16609">
        <ele>1636.3012695312</ele>
        <time>2015-07-26T15:55:42Z</time>
      </trkpt>
      <trkpt lat="42.84224" lon="-0.16585">
        <ele>1635.8205566406</ele>
        <time>2015-07-26T15:56:01Z</time>
      </trkpt>
      <trkpt lat="42.84243" lon="-0.16575">
        <ele>1634.859375</ele>
        <time>2015-07-26T15:56:18Z</time>
      </trkpt>
      <trkpt lat="42.84269" lon="-0.16564">
        <ele>1635.33984375</ele>
        <time>2015-07-26T15:56:39Z</time>
      </trkpt>
      <trkpt lat="42.84294" lon="-0.16554">
        <ele>1634.859375</ele>
        <time>2015-07-26T15:56:59Z</time>
      </trkpt>
      <trkpt lat="42.84319" lon="-0.16546">
        <ele>1634.3786621094</ele>
        <time>2015-07-26T15:57:19Z</time>
      </trkpt>
      <trkpt lat="42.84349" lon="-0.16536">
        <ele>1634.3786621094</ele>
        <time>2015-07-26T15:57:43Z</time>
      </trkpt>
      <trkpt lat="42.84376" lon="-0.16536">
        <ele>1634.3786621094</ele>
        <time>2015-07-26T15:58:03Z</time>
      </trkpt>
      <trkpt lat="42.84401" lon="-0.16538">
        <ele>1635.33984375</ele>
        <time>2015-07-26T15:58:22Z</time>
      </trkpt>
      <trkpt lat="42.84429" lon="-0.16535">
        <ele>1633.8979492188</ele>
        <time>2015-07-26T15:58:44Z</time>
      </trkpt>
      <trkpt lat="42.84454" lon="-0.16527">
        <ele>1634.3786621094</ele>
        <time>2015-07-26T15:59:03Z</time>
      </trkpt>
      <trkpt lat="42.8448" lon="-0.16519">
        <ele>1633.4172363281</ele>
        <time>2015-07-26T15:59:23Z</time>
      </trkpt>
      <trkpt lat="42.84501" lon="-0.16512">
        <ele>1633.4172363281</ele>
        <time>2015-07-26T15:59:40Z</time>
      </trkpt>
      <trkpt lat="42.84527" lon="-0.16502">
        <ele>1632.4560546875</ele>
        <time>2015-07-26T16:00:00Z</time>
      </trkpt>
      <trkpt lat="42.84555" lon="-0.16488">
        <ele>1632.4560546875</ele>
        <time>2015-07-26T16:00:21Z</time>
      </trkpt>
      <trkpt lat="42.84581" lon="-0.16475">
        <ele>1631.0141601562</ele>
        <time>2015-07-26T16:00:42Z</time>
      </trkpt>
      <trkpt lat="42.8461" lon="-0.1646">
        <ele>1631.0141601562</ele>
        <time>2015-07-26T16:01:05Z</time>
      </trkpt>
      <trkpt lat="42.84634" lon="-0.16454">
        <ele>1631.0141601562</ele>
        <time>2015-07-26T16:01:24Z</time>
      </trkpt>
      <trkpt lat="42.84664" lon="-0.16442">
        <ele>1629.5720214844</ele>
        <time>2015-07-26T16:01:47Z</time>
      </trkpt>
      <trkpt lat="42.84695" lon="-0.16428">
        <ele>1629.5720214844</ele>
        <time>2015-07-26T16:02:10Z</time>
      </trkpt>
      <trkpt lat="42.84729" lon="-0.1641">
        <ele>1628.6108398438</ele>
        <time>2015-07-26T16:02:37Z</time>
      </trkpt>
      <trkpt lat="42.84758" lon="-0.16392">
        <ele>1629.0913085938</ele>
        <time>2015-07-26T16:03:01Z</time>
      </trkpt>
      <trkpt lat="42.84782" lon="-0.16375">
        <ele>1628.6108398438</ele>
        <time>2015-07-26T16:03:22Z</time>
      </trkpt>
      <trkpt lat="42.84811" lon="-0.16356">
        <ele>1628.6108398438</ele>
        <time>2015-07-26T16:03:46Z</time>
      </trkpt>
      <trkpt lat="42.84816" lon="-0.16319">
        <ele>1628.6108398438</ele>
        <time>2015-07-26T16:04:06Z</time>
      </trkpt>
      <trkpt lat="42.84812" lon="-0.16291">
        <ele>1625.7265625</ele>
        <time>2015-07-26T16:04:23Z</time>
      </trkpt>
      <trkpt lat="42.84806" lon="-0.16261">
        <ele>1624.2846679688</ele>
        <time>2015-07-26T16:04:41Z</time>
      </trkpt>
      <trkpt lat="42.84811" lon="-0.16234">
        <ele>1622.8427734375</ele>
        <time>2015-07-26T16:04:58Z</time>
      </trkpt>
      <trkpt lat="42.84819" lon="-0.16217">
        <ele>1621.4006347656</ele>
        <time>2015-07-26T16:05:13Z</time>
      </trkpt>
      <trkpt lat="42.84831" lon="-0.16206">
        <ele>1619.9587402344</ele>
        <time>2015-07-26T16:05:25Z</time>
      </trkpt>
      <trkpt lat="42.84838" lon="-0.16203">
        <ele>1620.9201660156</ele>
        <time>2015-07-26T16:05:30Z</time>
      </trkpt>
      <trkpt lat="42.84853" lon="-0.16191">
        <ele>1619.9587402344</ele>
        <time>2015-07-26T16:05:44Z</time>
      </trkpt>
      <trkpt lat="42.84874" lon="-0.16182">
        <ele>1618.5168457031</ele>
        <time>2015-07-26T16:06:01Z</time>
      </trkpt>
      <trkpt lat="42.84887" lon="-0.1617">
        <ele>1620.9201660156</ele>
        <time>2015-07-26T16:06:18Z</time>
      </trkpt>
      <trkpt lat="42.84899" lon="-0.16158">
        <ele>1622.8427734375</ele>
        <time>2015-07-26T16:06:30Z</time>
      </trkpt>
      <trkpt lat="42.84903" lon="-0.16155">
        <ele>1622.8427734375</ele>
        <time>2015-07-26T16:06:34Z</time>
      </trkpt>
      <trkpt lat="42.8491" lon="-0.1615">
        <ele>1622.8427734375</ele>
        <time>2015-07-26T16:06:40Z</time>
      </trkpt>
      <trkpt lat="42.84918" lon="-0.16147">
        <ele>1623.3234863281</ele>
        <time>2015-07-26T16:06:47Z</time>
      </trkpt>
      <trkpt lat="42.84936" lon="-0.16143">
        <ele>1620.9201660156</ele>
        <time>2015-07-26T16:07:04Z</time>
      </trkpt>
      <trkpt lat="42.84956" lon="-0.16143">
        <ele>1619.9587402344</ele>
        <time>2015-07-26T16:07:23Z</time>
      </trkpt>
      <trkpt lat="42.84976" lon="-0.16153">
        <ele>1618.5168457031</ele>
        <time>2015-07-26T16:07:41Z</time>
      </trkpt>
      <trkpt lat="42.85008" lon="-0.16144">
        <ele>1617.5554199219</ele>
        <time>2015-07-26T16:08:02Z</time>
      </trkpt>
      <trkpt lat="42.85019" lon="-0.16136">
        <ele>1616.1135253906</ele>
        <time>2015-07-26T16:08:11Z</time>
      </trkpt>
      <trkpt lat="42.8503" lon="-0.16104">
        <ele>1616.5942382812</ele>
        <time>2015-07-26T16:08:30Z</time>
      </trkpt>
      <trkpt lat="42.85041" lon="-0.16065">
        <ele>1614.1909179688</ele>
        <time>2015-07-26T16:08:53Z</time>
      </trkpt>
      <trkpt lat="42.85052" lon="-0.16028">
        <ele>1614.6716308594</ele>
        <time>2015-07-26T16:09:15Z</time>
      </trkpt>
      <trkpt lat="42.85068" lon="-0.16019">
        <ele>1614.6716308594</ele>
        <time>2015-07-26T16:09:29Z</time>
      </trkpt>
      <trkpt lat="42.85083" lon="-0.16007">
        <ele>1614.1909179688</ele>
        <time>2015-07-26T16:09:44Z</time>
      </trkpt>
      <trkpt lat="42.85084" lon="-0.16006">
        <ele>1614.6716308594</ele>
        <time>2015-07-26T16:09:45Z</time>
      </trkpt>
      <trkpt lat="42.85088" lon="-0.15998">
        <ele>1615.6330566406</ele>
        <time>2015-07-26T16:09:51Z</time>
      </trkpt>
      <trkpt lat="42.851" lon="-0.15998">
        <ele>1614.6716308594</ele>
        <time>2015-07-26T16:10:01Z</time>
      </trkpt>
      <trkpt lat="42.8511" lon="-0.16028">
        <ele>1613.2297363281</ele>
        <time>2015-07-26T16:10:21Z</time>
      </trkpt>
      <trkpt lat="42.85117" lon="-0.1605">
        <ele>1613.2297363281</ele>
        <time>2015-07-26T16:10:36Z</time>
      </trkpt>
      <trkpt lat="42.85133" lon="-0.16037">
        <ele>1612.7490234375</ele>
        <time>2015-07-26T16:10:51Z</time>
      </trkpt>
      <trkpt lat="42.85137" lon="-0.16035">
        <ele>1612.2683105469</ele>
        <time>2015-07-26T16:10:56Z</time>
      </trkpt>
      <trkpt lat="42.8514" lon="-0.16031">
        <ele>1612.2683105469</ele>
        <time>2015-07-26T16:10:59Z</time>
      </trkpt>
      <trkpt lat="42.85153" lon="-0.16032">
        <ele>1612.2683105469</ele>
        <time>2015-07-26T16:11:14Z</time>
      </trkpt>
      <trkpt lat="42.85156" lon="-0.16029">
        <ele>1612.2683105469</ele>
        <time>2015-07-26T16:11:18Z</time>
      </trkpt>
      <trkpt lat="42.85163" lon="-0.16003">
        <ele>1611.7875976562</ele>
        <time>2015-07-26T16:11:37Z</time>
      </trkpt>
      <trkpt lat="42.85171" lon="-0.15968">
        <ele>1609.8647460938</ele>
        <time>2015-07-26T16:11:58Z</time>
      </trkpt>
      <trkpt lat="42.85173" lon="-0.15938">
        <ele>1610.826171875</ele>
        <time>2015-07-26T16:12:17Z</time>
      </trkpt>
      <trkpt lat="42.85179" lon="-0.15911">
        <ele>1609.8647460938</ele>
        <time>2015-07-26T16:12:36Z</time>
      </trkpt>
      <trkpt lat="42.85193" lon="-0.15887">
        <ele>1606.5002441406</ele>
        <time>2015-07-26T16:12:57Z</time>
      </trkpt>
      <trkpt lat="42.85199" lon="-0.1588">
        <ele>1606.01953125</ele>
        <time>2015-07-26T16:13:05Z</time>
      </trkpt>
      <trkpt lat="42.852" lon="-0.15876">
        <ele>1605.5390625</ele>
        <time>2015-07-26T16:13:08Z</time>
      </trkpt>
      <trkpt lat="42.85212" lon="-0.15858">
        <ele>1601.6938476562</ele>
        <time>2015-07-26T16:13:23Z</time>
      </trkpt>
      <trkpt lat="42.85219" lon="-0.15835">
        <ele>1600.251953125</ele>
        <time>2015-07-26T16:13:38Z</time>
      </trkpt>
      <trkpt lat="42.85213" lon="-0.15801">
        <ele>1600.732421875</ele>
        <time>2015-07-26T16:13:59Z</time>
      </trkpt>
      <trkpt lat="42.85206" lon="-0.15766">
        <ele>1600.732421875</ele>
        <time>2015-07-26T16:14:19Z</time>
      </trkpt>
      <trkpt lat="42.85218" lon="-0.15745">
        <ele>1599.7712402344</ele>
        <time>2015-07-26T16:14:36Z</time>
      </trkpt>
      <trkpt lat="42.85231" lon="-0.15716">
        <ele>1597.3679199219</ele>
        <time>2015-07-26T16:14:56Z</time>
      </trkpt>
      <trkpt lat="42.85232" lon="-0.15684">
        <ele>1596.8872070312</ele>
        <time>2015-07-26T16:15:15Z</time>
      </trkpt>
      <trkpt lat="42.85228" lon="-0.15669">
        <ele>1596.8872070312</ele>
        <time>2015-07-26T16:15:33Z</time>
      </trkpt>
      <trkpt lat="42.85222" lon="-0.15653">
        <ele>1597.3679199219</ele>
        <time>2015-07-26T16:15:50Z</time>
      </trkpt>
      <trkpt lat="42.8521" lon="-0.15626">
        <ele>1595.92578125</ele>
        <time>2015-07-26T16:16:08Z</time>
      </trkpt>
      <trkpt lat="42.85207" lon="-0.156">
        <ele>1593.0417480469</ele>
        <time>2015-07-26T16:16:25Z</time>
      </trkpt>
      <trkpt lat="42.85212" lon="-0.15573">
        <ele>1591.5998535156</ele>
        <time>2015-07-26T16:16:42Z</time>
      </trkpt>
      <trkpt lat="42.85213" lon="-0.15562">
        <ele>1590.6384277344</ele>
        <time>2015-07-26T16:16:50Z</time>
      </trkpt>
      <trkpt lat="42.85213" lon="-0.15559">
        <ele>1589.1965332031</ele>
        <time>2015-07-26T16:16:53Z</time>
      </trkpt>
      <trkpt lat="42.85213" lon="-0.15552">
        <ele>1587.7546386719</ele>
        <time>2015-07-26T16:16:58Z</time>
      </trkpt>
      <trkpt lat="42.85213" lon="-0.1555">
        <ele>1587.7546386719</ele>
        <time>2015-07-26T16:16:59Z</time>
      </trkpt>
      <trkpt lat="42.85211" lon="-0.15514">
        <ele>1587.2739257812</ele>
        <time>2015-07-26T16:17:20Z</time>
      </trkpt>
      <trkpt lat="42.85202" lon="-0.15487">
        <ele>1587.2739257812</ele>
        <time>2015-07-26T16:17:39Z</time>
      </trkpt>
      <trkpt lat="42.852" lon="-0.15462">
        <ele>1586.3127441406</ele>
        <time>2015-07-26T16:17:56Z</time>
      </trkpt>
      <trkpt lat="42.85201" lon="-0.15437">
        <ele>1586.7932128906</ele>
        <time>2015-07-26T16:18:14Z</time>
      </trkpt>
      <trkpt lat="42.85202" lon="-0.15401">
        <ele>1586.3127441406</ele>
        <time>2015-07-26T16:18:36Z</time>
      </trkpt>
      <trkpt lat="42.85204" lon="-0.15369">
        <ele>1586.3127441406</ele>
        <time>2015-07-26T16:18:56Z</time>
      </trkpt>
      <trkpt lat="42.85205" lon="-0.15339">
        <ele>1584.8708496094</ele>
        <time>2015-07-26T16:19:15Z</time>
      </trkpt>
      <trkpt lat="42.85205" lon="-0.15334">
        <ele>1582.9479980469</ele>
        <time>2015-07-26T16:19:19Z</time>
      </trkpt>
      <trkpt lat="42.85204" lon="-0.15313">
        <ele>1580.0642089844</ele>
        <time>2015-07-26T16:19:33Z</time>
      </trkpt>
      <trkpt lat="42.85209" lon="-0.15293">
        <ele>1576.6994628906</ele>
        <time>2015-07-26T16:19:46Z</time>
      </trkpt>
      <trkpt lat="42.85218" lon="-0.15263">
        <ele>1573.8154296875</ele>
        <time>2015-07-26T16:20:05Z</time>
      </trkpt>
      <trkpt lat="42.85224" lon="-0.15237">
        <ele>1573.8154296875</ele>
        <time>2015-07-26T16:20:23Z</time>
      </trkpt>
      <trkpt lat="42.85227" lon="-0.15213">
        <ele>1574.7768554688</ele>
        <time>2015-07-26T16:20:39Z</time>
      </trkpt>
      <trkpt lat="42.85231" lon="-0.152">
        <ele>1573.8154296875</ele>
        <time>2015-07-26T16:20:48Z</time>
      </trkpt>
      <trkpt lat="42.85238" lon="-0.15172">
        <ele>1573.3349609375</ele>
        <time>2015-07-26T16:21:07Z</time>
      </trkpt>
      <trkpt lat="42.85241" lon="-0.15163">
        <ele>1573.3349609375</ele>
        <time>2015-07-26T16:21:14Z</time>
      </trkpt>
      <trkpt lat="42.85247" lon="-0.15155">
        <ele>1571.8928222656</ele>
        <time>2015-07-26T16:21:21Z</time>
      </trkpt>
      <trkpt lat="42.8525" lon="-0.1515">
        <ele>1570.931640625</ele>
        <time>2015-07-26T16:21:24Z</time>
      </trkpt>
      <trkpt lat="42.8525" lon="-0.15134">
        <ele>1569.9702148438</ele>
        <time>2015-07-26T16:21:38Z</time>
      </trkpt>
      <trkpt lat="42.85244" lon="-0.15125">
        <ele>1567.5668945312</ele>
        <time>2015-07-26T16:21:49Z</time>
      </trkpt>
      <trkpt lat="42.85237" lon="-0.15104">
        <ele>1565.1638183594</ele>
        <time>2015-07-26T16:22:05Z</time>
      </trkpt>
      <trkpt lat="42.85229" lon="-0.15081">
        <ele>1564.6831054688</ele>
        <time>2015-07-26T16:22:23Z</time>
      </trkpt>
      <trkpt lat="42.85225" lon="-0.15073">
        <ele>1563.2409667969</ele>
        <time>2015-07-26T16:22:29Z</time>
      </trkpt>
      <trkpt lat="42.85216" lon="-0.1505">
        <ele>1560.8376464844</ele>
        <time>2015-07-26T16:22:47Z</time>
      </trkpt>
      <trkpt lat="42.8521" lon="-0.15028">
        <ele>1559.8762207031</ele>
        <time>2015-07-26T16:23:03Z</time>
      </trkpt>
      <trkpt lat="42.85204" lon="-0.15009">
        <ele>1556.9924316406</ele>
        <time>2015-07-26T16:23:16Z</time>
      </trkpt>
      <trkpt lat="42.85198" lon="-0.14991">
        <ele>1555.0698242188</ele>
        <time>2015-07-26T16:23:32Z</time>
      </trkpt>
      <trkpt lat="42.85191" lon="-0.1497">
        <ele>1552.1857910156</ele>
        <time>2015-07-26T16:23:47Z</time>
      </trkpt>
      <trkpt lat="42.85183" lon="-0.14953">
        <ele>1548.8212890625</ele>
        <time>2015-07-26T16:24:01Z</time>
      </trkpt>
      <trkpt lat="42.85172" lon="-0.14945">
        <ele>1547.3791503906</ele>
        <time>2015-07-26T16:24:15Z</time>
      </trkpt>
      <trkpt lat="42.85171" lon="-0.14933">
        <ele>1546.8984375</ele>
        <time>2015-07-26T16:24:23Z</time>
      </trkpt>
      <trkpt lat="42.85171" lon="-0.14905">
        <ele>1544.9758300781</ele>
        <time>2015-07-26T16:24:42Z</time>
      </trkpt>
      <trkpt lat="42.85169" lon="-0.14875">
        <ele>1542.5727539062</ele>
        <time>2015-07-26T16:25:00Z</time>
      </trkpt>
      <trkpt lat="42.85167" lon="-0.14843">
        <ele>1539.6887207031</ele>
        <time>2015-07-26T16:25:21Z</time>
      </trkpt>
      <trkpt lat="42.85166" lon="-0.14821">
        <ele>1535.8435058594</ele>
        <time>2015-07-26T16:25:36Z</time>
      </trkpt>
      <trkpt lat="42.85166" lon="-0.14819">
        <ele>1535.8435058594</ele>
        <time>2015-07-26T16:25:37Z</time>
      </trkpt>
      <trkpt lat="42.85163" lon="-0.14785">
        <ele>1534.4016113281</ele>
        <time>2015-07-26T16:25:57Z</time>
      </trkpt>
      <trkpt lat="42.85164" lon="-0.1475">
        <ele>1533.9208984375</ele>
        <time>2015-07-26T16:26:17Z</time>
      </trkpt>
      <trkpt lat="42.85162" lon="-0.1471">
        <ele>1533.4401855469</ele>
        <time>2015-07-26T16:26:40Z</time>
      </trkpt>
      <trkpt lat="42.8516" lon="-0.14686">
        <ele>1532.4790039062</ele>
        <time>2015-07-26T16:26:54Z</time>
      </trkpt>
      <trkpt lat="42.8516" lon="-0.14651">
        <ele>1532.9594726562</ele>
        <time>2015-07-26T16:27:14Z</time>
      </trkpt>
      <trkpt lat="42.85171" lon="-0.14621">
        <ele>1531.998046875</ele>
        <time>2015-07-26T16:27:33Z</time>
      </trkpt>
      <trkpt lat="42.85185" lon="-0.1459">
        <ele>1531.998046875</ele>
        <time>2015-07-26T16:27:54Z</time>
      </trkpt>
      <trkpt lat="42.85201" lon="-0.14556">
        <ele>1531.0368652344</ele>
        <time>2015-07-26T16:28:16Z</time>
      </trkpt>
      <trkpt lat="42.85214" lon="-0.14519">
        <ele>1531.0368652344</ele>
        <time>2015-07-26T16:28:39Z</time>
      </trkpt>
      <trkpt lat="42.8522" lon="-0.14491">
        <ele>1531.5173339844</ele>
        <time>2015-07-26T16:28:56Z</time>
      </trkpt>
      <trkpt lat="42.8523" lon="-0.14457">
        <ele>1532.4790039062</ele>
        <time>2015-07-26T16:29:17Z</time>
      </trkpt>
      <trkpt lat="42.85243" lon="-0.14424">
        <ele>1533.4401855469</ele>
        <time>2015-07-26T16:29:38Z</time>
      </trkpt>
      <trkpt lat="42.85256" lon="-0.14386">
        <ele>1533.4401855469</ele>
        <time>2015-07-26T16:30:01Z</time>
      </trkpt>
      <trkpt lat="42.85259" lon="-0.14345">
        <ele>1533.4401855469</ele>
        <time>2015-07-26T16:30:24Z</time>
      </trkpt>
      <trkpt lat="42.85258" lon="-0.14304">
        <ele>1532.4790039062</ele>
        <time>2015-07-26T16:30:46Z</time>
      </trkpt>
      <trkpt lat="42.8525" lon="-0.14267">
        <ele>1531.998046875</ele>
        <time>2015-07-26T16:31:08Z</time>
      </trkpt>
      <trkpt lat="42.85241" lon="-0.14255">
        <ele>1532.4790039062</ele>
        <time>2015-07-26T16:31:17Z</time>
      </trkpt>
      <trkpt lat="42.85223" lon="-0.1424">
        <ele>1531.5173339844</ele>
        <time>2015-07-26T16:31:33Z</time>
      </trkpt>
      <trkpt lat="42.85217" lon="-0.14236">
        <ele>1531.5173339844</ele>
        <time>2015-07-26T16:31:38Z</time>
      </trkpt>
      <trkpt lat="42.85216" lon="-0.14231">
        <ele>1531.998046875</ele>
        <time>2015-07-26T16:31:42Z</time>
      </trkpt>
      <trkpt lat="42.852" lon="-0.14211">
        <ele>1531.998046875</ele>
        <time>2015-07-26T16:31:58Z</time>
      </trkpt>
      <trkpt lat="42.85186" lon="-0.14188">
        <ele>1530.0754394531</ele>
        <time>2015-07-26T16:32:15Z</time>
      </trkpt>
      <trkpt lat="42.85174" lon="-0.14166">
        <ele>1528.6335449219</ele>
        <time>2015-07-26T16:32:31Z</time>
      </trkpt>
      <trkpt lat="42.8517" lon="-0.1416">
        <ele>1527.6721191406</ele>
        <time>2015-07-26T16:32:35Z</time>
      </trkpt>
      <trkpt lat="42.85155" lon="-0.14152">
        <ele>1525.7495117188</ele>
        <time>2015-07-26T16:32:48Z</time>
      </trkpt>
      <trkpt lat="42.85139" lon="-0.14141">
        <ele>1522.8657226562</ele>
        <time>2015-07-26T16:33:04Z</time>
      </trkpt>
      <trkpt lat="42.85138" lon="-0.1414">
        <ele>1522.8657226562</ele>
        <time>2015-07-26T16:33:05Z</time>
      </trkpt>
      <trkpt lat="42.85132" lon="-0.14114">
        <ele>1520.9431152344</ele>
        <time>2015-07-26T16:33:21Z</time>
      </trkpt>
      <trkpt lat="42.85126" lon="-0.14088">
        <ele>1518.0590820312</ele>
        <time>2015-07-26T16:33:38Z</time>
      </trkpt>
      <trkpt lat="42.85125" lon="-0.1408">
        <ele>1518.0590820312</ele>
        <time>2015-07-26T16:33:43Z</time>
      </trkpt>
      <trkpt lat="42.85125" lon="-0.1405">
        <ele>1516.6171875</ele>
        <time>2015-07-26T16:34:01Z</time>
      </trkpt>
      <trkpt lat="42.85128" lon="-0.14041">
        <ele>1516.1364746094</ele>
        <time>2015-07-26T16:34:14Z</time>
      </trkpt>
      <trkpt lat="42.85128" lon="-0.1404">
        <ele>1516.1364746094</ele>
        <time>2015-07-26T16:34:15Z</time>
      </trkpt>
      <trkpt lat="42.85135" lon="-0.1401">
        <ele>1513.7329101562</ele>
        <time>2015-07-26T16:34:35Z</time>
      </trkpt>
      <trkpt lat="42.8514" lon="-0.13979">
        <ele>1510.3684082031</ele>
        <time>2015-07-26T16:34:55Z</time>
      </trkpt>
      <trkpt lat="42.85121" lon="-0.13981">
        <ele>1510.3684082031</ele>
        <time>2015-07-26T16:35:11Z</time>
      </trkpt>
      <trkpt lat="42.85115" lon="-0.13994">
        <ele>1509.4072265625</ele>
        <time>2015-07-26T16:35:26Z</time>
      </trkpt>
      <trkpt lat="42.85114" lon="-0.13995">
        <ele>1508.9265136719</ele>
        <time>2015-07-26T16:35:40Z</time>
      </trkpt>
      <trkpt lat="42.85116" lon="-0.13996">
        <ele>1508.4458007812</ele>
        <time>2015-07-26T16:35:52Z</time>
      </trkpt>
      <trkpt lat="42.85116" lon="-0.13995">
        <ele>1507.9653320312</ele>
        <time>2015-07-26T16:36:11Z</time>
      </trkpt>
      <trkpt lat="42.85115" lon="-0.13984">
        <ele>1507.4846191406</ele>
        <time>2015-07-26T16:36:58Z</time>
      </trkpt>
      <trkpt lat="42.8511" lon="-0.13972">
        <ele>1507.4846191406</ele>
        <time>2015-07-26T16:37:27Z</time>
      </trkpt>
      <trkpt lat="42.85114" lon="-0.13982">
        <ele>1507.9653320312</ele>
        <time>2015-07-26T16:38:02Z</time>
      </trkpt>
      <trkpt lat="42.8511" lon="-0.13974">
        <ele>1508.9265136719</ele>
        <time>2015-07-26T16:38:40Z</time>
      </trkpt>
      <trkpt lat="42.85111" lon="-0.13978">
        <ele>1508.4458007812</ele>
        <time>2015-07-26T16:39:05Z</time>
      </trkpt>
      <trkpt lat="42.85112" lon="-0.13981">
        <ele>1508.4458007812</ele>
        <time>2015-07-26T16:39:09Z</time>
      </trkpt>
      <trkpt lat="42.85115" lon="-0.13989">
        <ele>1507.9653320312</ele>
        <time>2015-07-26T16:39:21Z</time>
      </trkpt>
      <trkpt lat="42.85118" lon="-0.13999">
        <ele>1508.4458007812</ele>
        <time>2015-07-26T16:39:39Z</time>
      </trkpt>
      <trkpt lat="42.85115" lon="-0.13992">
        <ele>1508.4458007812</ele>
        <time>2015-07-26T16:40:22Z</time>
      </trkpt>
      <trkpt lat="42.85114" lon="-0.13991">
        <ele>1508.4458007812</ele>
        <time>2015-07-26T16:40:42Z</time>
      </trkpt>
      <trkpt lat="42.85114" lon="-0.13993">
        <ele>1507.9653320312</ele>
        <time>2015-07-26T16:41:13Z</time>
      </trkpt>
      <trkpt lat="42.85114" lon="-0.13993">
        <ele>1507.9653320312</ele>
        <time>2015-07-26T16:41:36Z</time>
      </trkpt>
      <trkpt lat="42.85113" lon="-0.13993">
        <ele>1507.4846191406</ele>
        <time>2015-07-26T16:42:31Z</time>
      </trkpt>
      <trkpt lat="42.85115" lon="-0.13996">
        <ele>1507.4846191406</ele>
        <time>2015-07-26T16:42:56Z</time>
      </trkpt>
      <trkpt lat="42.85115" lon="-0.13994">
        <ele>1507.4846191406</ele>
        <time>2015-07-26T16:43:40Z</time>
      </trkpt>
      <trkpt lat="42.85114" lon="-0.13993">
        <ele>1507.00390625</ele>
        <time>2015-07-26T16:44:08Z</time>
      </trkpt>
      <trkpt lat="42.8512" lon="-0.14008">
        <ele>1507.00390625</ele>
        <time>2015-07-26T16:44:35Z</time>
      </trkpt>
      <trkpt lat="42.85119" lon="-0.14008">
        <ele>1507.00390625</ele>
        <time>2015-07-26T16:44:55Z</time>
      </trkpt>
      <trkpt lat="42.85115" lon="-0.14002">
        <ele>1507.00390625</ele>
        <time>2015-07-26T16:45:22Z</time>
      </trkpt>
      <trkpt lat="42.85116" lon="-0.14006">
        <ele>1506.5231933594</ele>
        <time>2015-07-26T16:45:43Z</time>
      </trkpt>
      <trkpt lat="42.85114" lon="-0.13997">
        <ele>1507.00390625</ele>
        <time>2015-07-26T16:46:05Z</time>
      </trkpt>
      <trkpt lat="42.85113" lon="-0.13991">
        <ele>1507.4846191406</ele>
        <time>2015-07-26T16:46:30Z</time>
      </trkpt>
      <trkpt lat="42.85113" lon="-0.13991">
        <ele>1507.00390625</ele>
        <time>2015-07-26T16:47:00Z</time>
      </trkpt>
      <trkpt lat="42.85115" lon="-0.13996">
        <ele>1507.4846191406</ele>
        <time>2015-07-26T16:47:17Z</time>
      </trkpt>
      <trkpt lat="42.85116" lon="-0.13998">
        <ele>1507.4846191406</ele>
        <time>2015-07-26T16:47:41Z</time>
      </trkpt>
      <trkpt lat="42.85116" lon="-0.13997">
        <ele>1507.4846191406</ele>
        <time>2015-07-26T16:48:06Z</time>
      </trkpt>
      <trkpt lat="42.85116" lon="-0.13996">
        <ele>1507.9653320312</ele>
        <time>2015-07-26T16:48:48Z</time>
      </trkpt>
      <trkpt lat="42.85115" lon="-0.13994">
        <ele>1507.9653320312</ele>
        <time>2015-07-26T16:49:10Z</time>
      </trkpt>
      <trkpt lat="42.85115" lon="-0.13995">
        <ele>1507.4846191406</ele>
        <time>2015-07-26T16:49:31Z</time>
      </trkpt>
      <trkpt lat="42.85116" lon="-0.13995">
        <ele>1507.4846191406</ele>
        <time>2015-07-26T16:49:54Z</time>
      </trkpt>
      <trkpt lat="42.85116" lon="-0.13995">
        <ele>1507.4846191406</ele>
        <time>2015-07-26T16:50:19Z</time>
      </trkpt>
      <trkpt lat="42.85118" lon="-0.13997">
        <ele>1507.00390625</ele>
        <time>2015-07-26T16:50:41Z</time>
      </trkpt>
      <trkpt lat="42.85117" lon="-0.13996">
        <ele>1507.4846191406</ele>
        <time>2015-07-26T16:51:01Z</time>
      </trkpt>
      <trkpt lat="42.85118" lon="-0.13996">
        <ele>1507.00390625</ele>
        <time>2015-07-26T16:51:27Z</time>
      </trkpt>
      <trkpt lat="42.85118" lon="-0.13997">
        <ele>1507.00390625</ele>
        <time>2015-07-26T16:51:52Z</time>
      </trkpt>
      <trkpt lat="42.85118" lon="-0.13995">
        <ele>1506.5231933594</ele>
        <time>2015-07-26T16:52:11Z</time>
      </trkpt>
      <trkpt lat="42.85117" lon="-0.13992">
        <ele>1507.9653320312</ele>
        <time>2015-07-26T16:52:26Z</time>
      </trkpt>
      <trkpt lat="42.85114" lon="-0.1399">
        <ele>1507.4846191406</ele>
        <time>2015-07-26T16:52:41Z</time>
      </trkpt>
      <trkpt lat="42.85109" lon="-0.13979">
        <ele>1507.4846191406</ele>
        <time>2015-07-26T16:52:55Z</time>
      </trkpt>
      <trkpt lat="42.85114" lon="-0.13969">
        <ele>1505.0812988281</ele>
        <time>2015-07-26T16:53:10Z</time>
      </trkpt>
      <trkpt lat="42.85114" lon="-0.13968">
        <ele>1505.0812988281</ele>
        <time>2015-07-26T16:53:11Z</time>
      </trkpt>
      <trkpt lat="42.85119" lon="-0.13958">
        <ele>1503.6394042969</ele>
        <time>2015-07-26T16:53:21Z</time>
      </trkpt>
      <trkpt lat="42.85132" lon="-0.13949">
        <ele>1500.7553710938</ele>
        <time>2015-07-26T16:53:36Z</time>
      </trkpt>
      <trkpt lat="42.85141" lon="-0.1394">
        <ele>1499.3132324219</ele>
        <time>2015-07-26T16:53:49Z</time>
      </trkpt>
      <trkpt lat="42.8514" lon="-0.13934">
        <ele>1497.390625</ele>
        <time>2015-07-26T16:53:57Z</time>
      </trkpt>
      <trkpt lat="42.85128" lon="-0.13932">
        <ele>1495.9487304688</ele>
        <time>2015-07-26T16:54:14Z</time>
      </trkpt>
      <trkpt lat="42.85127" lon="-0.13929">
        <ele>1495.9487304688</ele>
        <time>2015-07-26T16:54:39Z</time>
      </trkpt>
      <trkpt lat="42.85114" lon="-0.13933">
        <ele>1495.4680175781</ele>
        <time>2015-07-26T16:54:54Z</time>
      </trkpt>
      <trkpt lat="42.85108" lon="-0.13931">
        <ele>1494.9873046875</ele>
        <time>2015-07-26T16:55:15Z</time>
      </trkpt>
      <trkpt lat="42.85105" lon="-0.13923">
        <ele>1494.5065917969</ele>
        <time>2015-07-26T16:55:22Z</time>
      </trkpt>
      <trkpt lat="42.85097" lon="-0.13904">
        <ele>1493.5454101562</ele>
        <time>2015-07-26T16:55:36Z</time>
      </trkpt>
      <trkpt lat="42.85098" lon="-0.13891">
        <ele>1492.5842285156</ele>
        <time>2015-07-26T16:55:48Z</time>
      </trkpt>
      <trkpt lat="42.85103" lon="-0.13884">
        <ele>1491.1420898438</ele>
        <time>2015-07-26T16:56:03Z</time>
      </trkpt>
      <trkpt lat="42.8511" lon="-0.1388">
        <ele>1490.1809082031</ele>
        <time>2015-07-26T16:56:20Z</time>
      </trkpt>
      <trkpt lat="42.85114" lon="-0.13863">
        <ele>1487.7775878906</ele>
        <time>2015-07-26T16:56:37Z</time>
      </trkpt>
      <trkpt lat="42.85122" lon="-0.13848">
        <ele>1485.8549804688</ele>
        <time>2015-07-26T16:56:54Z</time>
      </trkpt>
      <trkpt lat="42.85127" lon="-0.13838">
        <ele>1484.4130859375</ele>
        <time>2015-07-26T16:57:04Z</time>
      </trkpt>
      <trkpt lat="42.85126" lon="-0.13811">
        <ele>1482.490234375</ele>
        <time>2015-07-26T16:57:19Z</time>
      </trkpt>
      <trkpt lat="42.85128" lon="-0.13783">
        <ele>1481.0483398438</ele>
        <time>2015-07-26T16:57:37Z</time>
      </trkpt>
      <trkpt lat="42.85138" lon="-0.1375">
        <ele>1480.5676269531</ele>
        <time>2015-07-26T16:58:00Z</time>
      </trkpt>
      <trkpt lat="42.85149" lon="-0.13721">
        <ele>1479.6062011719</ele>
        <time>2015-07-26T16:58:21Z</time>
      </trkpt>
      <trkpt lat="42.85154" lon="-0.13706">
        <ele>1477.203125</ele>
        <time>2015-07-26T16:58:31Z</time>
      </trkpt>
      <trkpt lat="42.85157" lon="-0.13697">
        <ele>1476.7224121094</ele>
        <time>2015-07-26T16:58:38Z</time>
      </trkpt>
      <trkpt lat="42.85165" lon="-0.13682">
        <ele>1474.3190917969</ele>
        <time>2015-07-26T16:58:52Z</time>
      </trkpt>
      <trkpt lat="42.85176" lon="-0.13654">
        <ele>1473.3579101562</ele>
        <time>2015-07-26T16:59:13Z</time>
      </trkpt>
      <trkpt lat="42.85179" lon="-0.13633">
        <ele>1472.396484375</ele>
        <time>2015-07-26T16:59:26Z</time>
      </trkpt>
      <trkpt lat="42.85177" lon="-0.13596">
        <ele>1471.9157714844</ele>
        <time>2015-07-26T16:59:49Z</time>
      </trkpt>
      <trkpt lat="42.85176" lon="-0.13586">
        <ele>1470.4738769531</ele>
        <time>2015-07-26T16:59:55Z</time>
      </trkpt>
      <trkpt lat="42.85176" lon="-0.13555">
        <ele>1471.4350585938</ele>
        <time>2015-07-26T17:00:15Z</time>
      </trkpt>
      <trkpt lat="42.85177" lon="-0.1353">
        <ele>1469.0319824219</ele>
        <time>2015-07-26T17:00:31Z</time>
      </trkpt>
      <trkpt lat="42.85179" lon="-0.13513">
        <ele>1469.0319824219</ele>
        <time>2015-07-26T17:00:47Z</time>
      </trkpt>
      <trkpt lat="42.85188" lon="-0.13518">
        <ele>1469.0319824219</ele>
        <time>2015-07-26T17:01:22Z</time>
      </trkpt>
    </trkseg>
  </trk>
</gpx>